sensor_id;sensor_type;location;lat;lon;timestamp;pressure;altitude;pressure_sealevel;temperature;humidity
53440;BME280;39333;47.044;15.080;2022-09-09T00:04:28;96159.38;;;16.28;68.74
53440;BME280;39333;47.044;15.080;2022-09-09T00:07:15;96151.47;;;16.07;69.50
53440;BME280;39333;47.044;15.080;2022-09-09T00:10:04;96149.91;;;16.06;69.19
53440;BME280;39333;47.044;15.080;2022-09-09T00:12:46;96144.94;;;15.90;69.88
53440;BME280;39333;47.044;15.080;2022-09-09T00:15:20;96149.50;;;15.89;69.76
53440;BME280;39333;47.044;15.080;2022-09-09T00:18:05;96145.03;;;15.74;70.07
53440;BME280;39333;47.044;15.080;2022-09-09T00:23:12;96155.56;;;16.00;68.59
53440;BME280;39333;47.044;15.080;2022-09-09T00:29:04;96149.72;;;15.93;69.06
53440;BME280;39333;47.044;15.080;2022-09-09T00:31:32;96165.75;;;15.93;68.89
53440;BME280;39333;47.044;15.080;2022-09-09T00:34:13;96161.47;;;15.92;69.00
53440;BME280;39333;47.044;15.080;2022-09-09T00:36:41;96151.38;;;15.84;69.04
53440;BME280;39333;47.044;15.080;2022-09-09T00:39:21;96156.28;;;15.66;69.67
53440;BME280;39333;47.044;15.080;2022-09-09T00:42:18;96158.97;;;15.61;70.02
53440;BME280;39333;47.044;15.080;2022-09-09T00:44:58;96160.03;;;15.70;69.65
53440;BME280;39333;47.044;15.080;2022-09-09T00:50:25;96170.66;;;15.75;69.41
53440;BME280;39333;47.044;15.080;2022-09-09T00:58:15;96169.13;;;15.64;69.29
53440;BME280;39333;47.044;15.080;2022-09-09T01:00:59;96166.19;;;15.66;69.23
53440;BME280;39333;47.044;15.080;2022-09-09T01:11:26;96165.16;;;15.52;69.56
53440;BME280;39333;47.044;15.080;2022-09-09T01:17:01;96163.88;;;15.39;69.71
53440;BME280;39333;47.044;15.080;2022-09-09T01:19:47;96171.28;;;15.52;69.33
53440;BME280;39333;47.044;15.080;2022-09-09T01:25:26;96176.91;;;15.51;69.36
53440;BME280;39333;47.044;15.080;2022-09-09T01:28:21;96176.13;;;15.55;68.79
53440;BME280;39333;47.044;15.080;2022-09-09T01:30:50;96172.09;;;15.53;68.70
53440;BME280;39333;47.044;15.080;2022-09-09T01:33:21;96170.50;;;15.52;68.75
53440;BME280;39333;47.044;15.080;2022-09-09T01:35:52;96169.16;;;15.54;68.74
53440;BME280;39333;47.044;15.080;2022-09-09T01:38:28;96180.44;;;15.41;68.77
53440;BME280;39333;47.044;15.080;2022-09-09T01:40:56;96182.06;;;15.32;69.44
53440;BME280;39333;47.044;15.080;2022-09-09T01:43:34;96174.63;;;15.24;69.68
53440;BME280;39333;47.044;15.080;2022-09-09T01:46:01;96168.22;;;15.20;69.44
53440;BME280;39333;47.044;15.080;2022-09-09T01:48:31;96167.66;;;15.23;69.26
53440;BME280;39333;47.044;15.080;2022-09-09T01:51:08;96167.13;;;15.21;69.37
53440;BME280;39333;47.044;15.080;2022-09-09T01:53:39;96165.81;;;15.18;69.69
53440;BME280;39333;47.044;15.080;2022-09-09T02:04:26;96178.63;;;15.16;69.42
53440;BME280;39333;47.044;15.080;2022-09-09T02:06:56;96169.81;;;15.26;68.84
53440;BME280;39333;47.044;15.080;2022-09-09T02:09:29;96169.75;;;15.36;68.30
53440;BME280;39333;47.044;15.080;2022-09-09T02:12:08;96162.81;;;15.35;68.18
53440;BME280;39333;47.044;15.080;2022-09-09T02:14:55;96173.50;;;15.30;68.16
53440;BME280;39333;47.044;15.080;2022-09-09T02:17:30;96167.91;;;15.31;68.86
53440;BME280;39333;47.044;15.080;2022-09-09T02:20:12;96171.38;;;15.27;68.51
53440;BME280;39333;47.044;15.080;2022-09-09T02:22:45;96167.66;;;15.23;69.13
53440;BME280;39333;47.044;15.080;2022-09-09T02:25:17;96175.41;;;15.24;68.77
53440;BME280;39333;47.044;15.080;2022-09-09T02:27:47;96176.75;;;15.17;69.29
53440;BME280;39333;47.044;15.080;2022-09-09T02:30:16;96184.81;;;15.07;70.14
53440;BME280;39333;47.044;15.080;2022-09-09T02:32:52;96174.13;;;15.01;70.09
53440;BME280;39333;47.044;15.080;2022-09-09T02:35:34;96178.38;;;15.13;69.67
53440;BME280;39333;47.044;15.080;2022-09-09T02:38:08;96178.88;;;15.20;69.65
53440;BME280;39333;47.044;15.080;2022-09-09T02:40:39;96187.97;;;15.19;69.66
53440;BME280;39333;47.044;15.080;2022-09-09T02:43:05;96187.44;;;15.22;69.44
53440;BME280;39333;47.044;15.080;2022-09-09T02:45:51;96178.34;;;15.23;69.33
53440;BME280;39333;47.044;15.080;2022-09-09T02:48:29;96190.59;;;15.29;69.06
53440;BME280;39333;47.044;15.080;2022-09-09T02:51:10;96183.94;;;15.26;68.99
53440;BME280;39333;47.044;15.080;2022-09-09T02:53:56;96175.94;;;15.21;69.06
53440;BME280;39333;47.044;15.080;2022-09-09T02:56:31;96174.09;;;15.17;69.23
53440;BME280;39333;47.044;15.080;2022-09-09T02:59:05;96175.94;;;15.21;69.58
53440;BME280;39333;47.044;15.080;2022-09-09T03:01:34;96184.22;;;15.25;69.66
53440;BME280;39333;47.044;15.080;2022-09-09T03:04:03;96166.28;;;15.30;69.33
53440;BME280;39333;47.044;15.080;2022-09-09T03:06:32;96170.28;;;15.33;69.39
53440;BME280;39333;47.044;15.080;2022-09-09T03:09:08;96172.47;;;15.26;69.30
53440;BME280;39333;47.044;15.080;2022-09-09T03:11:37;96173.03;;;15.18;69.56
53440;BME280;39333;47.044;15.080;2022-09-09T03:14:07;96167.69;;;15.13;70.19
53440;BME280;39333;47.044;15.080;2022-09-09T03:16:35;96172.25;;;15.02;70.81
53440;BME280;39333;47.044;15.080;2022-09-09T03:19:02;96170.13;;;14.94;71.63
53440;BME280;39333;47.044;15.080;2022-09-09T03:21:29;96173.31;;;15.01;71.38
53440;BME280;39333;47.044;15.080;2022-09-09T03:23:56;96177.34;;;15.09;70.79
53440;BME280;39333;47.044;15.080;2022-09-09T03:26:23;96178.88;;;15.20;70.18
53440;BME280;39333;47.044;15.080;2022-09-09T03:28:50;96179.69;;;15.25;70.11
53440;BME280;39333;47.044;15.080;2022-09-09T03:31:20;96181.03;;;15.13;70.19
53440;BME280;39333;47.044;15.080;2022-09-09T03:33:47;96181.28;;;15.21;70.30
53440;BME280;39333;47.044;15.080;2022-09-09T03:36:16;96190.91;;;15.22;70.27
53440;BME280;39333;47.044;15.080;2022-09-09T03:38:42;96187.94;;;15.29;70.24
53440;BME280;39333;47.044;15.080;2022-09-09T03:41:10;96190.19;;;14.86;72.11
53440;BME280;39333;47.044;15.080;2022-09-09T03:43:38;96191.50;;;14.79;72.31
53440;BME280;39333;47.044;15.080;2022-09-09T03:46:05;96194.69;;;14.96;71.89
53440;BME280;39333;47.044;15.080;2022-09-09T03:48:32;96189.63;;;15.04;71.25
53440;BME280;39333;47.044;15.080;2022-09-09T03:50:59;96195.44;;;15.12;70.74
53440;BME280;39333;47.044;15.080;2022-09-09T03:53:30;96190.66;;;15.19;70.21
53440;BME280;39333;47.044;15.080;2022-09-09T03:55:57;96189.00;;;15.28;70.08
53440;BME280;39333;47.044;15.080;2022-09-09T03:58:27;96185.25;;;15.29;69.88
53440;BME280;39333;47.044;15.080;2022-09-09T04:01:09;96182.59;;;15.29;69.93
53440;BME280;39333;47.044;15.080;2022-09-09T04:03:37;96179.44;;;15.22;69.56
53440;BME280;39333;47.044;15.080;2022-09-09T04:06:05;96179.44;;;15.17;70.57
53440;BME280;39333;47.044;15.080;2022-09-09T04:08:33;96181.56;;;15.15;70.48
53440;BME280;39333;47.044;15.080;2022-09-09T04:11:02;96171.94;;;15.14;70.60
53440;BME280;39333;47.044;15.080;2022-09-09T04:13:33;96176.75;;;15.22;70.59
53440;BME280;39333;47.044;15.080;2022-09-09T04:16:02;96174.31;;;15.30;70.44
53440;BME280;39333;47.044;15.080;2022-09-09T04:18:31;96181.53;;;15.30;70.47
53440;BME280;39333;47.044;15.080;2022-09-09T04:20:59;96182.59;;;15.29;70.24
53440;BME280;39333;47.044;15.080;2022-09-09T04:23:29;96182.84;;;15.32;70.09
53440;BME280;39333;47.044;15.080;2022-09-09T04:25:58;96186.31;;;15.33;70.31
53440;BME280;39333;47.044;15.080;2022-09-09T04:28:28;96180.19;;;15.32;70.08
53440;BME280;39333;47.044;15.080;2022-09-09T04:30:56;96175.38;;;15.29;70.54
53440;BME280;39333;47.044;15.080;2022-09-09T04:33:24;96167.94;;;15.21;69.97
53440;BME280;39333;47.044;15.080;2022-09-09T04:35:54;96175.16;;;15.16;70.10
53440;BME280;39333;47.044;15.080;2022-09-09T04:38:23;96176.75;;;15.17;70.65
53440;BME280;39333;47.044;15.080;2022-09-09T04:40:51;96174.88;;;15.17;70.52
53440;BME280;39333;47.044;15.080;2022-09-09T04:43:18;96176.22;;;15.15;70.93
53440;BME280;39333;47.044;15.080;2022-09-09T04:45:50;96178.63;;;15.16;71.28
53440;BME280;39333;47.044;15.080;2022-09-09T04:48:21;96170.06;;;15.19;70.67
53440;BME280;39333;47.044;15.080;2022-09-09T04:51:00;96176.75;;;15.17;70.81
53440;BME280;39333;47.044;15.080;2022-09-09T04:53:29;96176.22;;;15.25;70.39
53440;BME280;39333;47.044;15.080;2022-09-09T04:56:04;96177.78;;;15.31;70.15
53440;BME280;39333;47.044;15.080;2022-09-09T04:58:35;96166.03;;;15.32;70.04
53440;BME280;39333;47.044;15.080;2022-09-09T05:01:09;96171.38;;;15.32;69.97
53440;BME280;39333;47.044;15.080;2022-09-09T05:03:38;96170.56;;;15.31;70.00
53440;BME280;39333;47.044;15.080;2022-09-09T05:06:09;96168.44;;;15.28;70.23
53440;BME280;39333;47.044;15.080;2022-09-09T05:08:38;96170.03;;;15.29;70.05
53440;BME280;39333;47.044;15.080;2022-09-09T05:11:25;96166.03;;;15.27;69.90
53440;BME280;39333;47.044;15.080;2022-09-09T05:13:56;96169.81;;;15.21;70.04
53440;BME280;39333;47.044;15.080;2022-09-09T05:16:23;96172.22;;;15.22;70.40
53440;BME280;39333;47.044;15.080;2022-09-09T05:18:50;96165.28;;;15.21;70.12
53440;BME280;39333;47.044;15.080;2022-09-09T05:21:22;96164.22;;;15.17;70.45
53440;BME280;39333;47.044;15.080;2022-09-09T05:23:49;96162.38;;;15.08;71.67
53440;BME280;39333;47.044;15.080;2022-09-09T05:26:21;96169.56;;;15.12;71.16
53440;BME280;39333;47.044;15.080;2022-09-09T05:28:50;96169.81;;;15.21;70.57
53440;BME280;39333;47.044;15.080;2022-09-09T05:31:18;96172.97;;;15.28;70.67
53440;BME280;39333;47.044;15.080;2022-09-09T05:33:48;96168.69;;;15.37;70.02
53440;BME280;39333;47.044;15.080;2022-09-09T05:36:18;96174.50;;;15.49;69.90
53440;BME280;39333;47.044;15.080;2022-09-09T05:38:47;96177.16;;;15.54;70.24
53440;BME280;39333;47.044;15.080;2022-09-09T05:41:14;96173.47;;;15.55;70.32
53440;BME280;39333;47.044;15.080;2022-09-09T05:43:45;96183.03;;;15.61;70.40
53440;BME280;39333;47.044;15.080;2022-09-09T05:46:18;96176.63;;;15.62;69.28
53440;BME280;39333;47.044;15.080;2022-09-09T05:48:47;96177.41;;;15.68;70.38
53440;BME280;39333;47.044;15.080;2022-09-09T05:51:20;96174.44;;;15.74;69.62
53440;BME280;39333;47.044;15.080;2022-09-09T05:53:48;96178.91;;;15.84;69.74
53440;BME280;39333;47.044;15.080;2022-09-09T05:56:17;96186.06;;;15.94;69.52
53440;BME280;39333;47.044;15.080;2022-09-09T05:58:44;96182.31;;;16.00;69.54
53440;BME280;39333;47.044;15.080;2022-09-09T06:01:18;96189.97;;;16.12;69.43
53440;BME280;39333;47.044;15.080;2022-09-09T06:03:46;96176.31;;;16.18;70.01
53440;BME280;39333;47.044;15.080;2022-09-09T06:06:16;96175.69;;;16.26;70.35
53440;BME280;39333;47.044;15.080;2022-09-09T06:08:44;96163.91;;;16.32;69.23
53440;BME280;39333;47.044;15.080;2022-09-09T06:11:17;96177.72;;;16.44;69.13
53440;BME280;39333;47.044;15.080;2022-09-09T06:13:44;96182.50;;;16.48;68.51
53440;BME280;39333;47.044;15.080;2022-09-09T06:16:15;96188.91;;;16.52;67.33
53440;BME280;39333;47.044;15.080;2022-09-09T06:18:43;96189.16;;;16.55;67.57
53440;BME280;39333;47.044;15.080;2022-09-09T06:21:18;96177.16;;;16.48;68.62
53440;BME280;39333;47.044;15.080;2022-09-09T06:23:46;96174.59;;;16.32;69.22
53440;BME280;39333;47.044;15.080;2022-09-09T06:26:19;96177.31;;;16.27;69.36
53440;BME280;39333;47.044;15.080;2022-09-09T06:28:50;96181.00;;;16.36;68.82
53440;BME280;39333;47.044;15.080;2022-09-09T06:31:21;96181.47;;;16.43;69.36
53440;BME280;39333;47.044;15.080;2022-09-09T06:33:57;96179.97;;;16.61;68.52
53440;BME280;39333;47.044;15.080;2022-09-09T06:36:27;96173.53;;;16.67;68.20
53440;BME280;39333;47.044;15.080;2022-09-09T06:38:55;96175.03;;;16.78;67.83
53440;BME280;39333;47.044;15.080;2022-09-09T06:41:24;96175.56;;;16.81;68.02
53440;BME280;39333;47.044;15.080;2022-09-09T06:43:53;96173.72;;;16.76;67.88
53440;BME280;39333;47.044;15.080;2022-09-09T06:46:30;96182.19;;;16.88;68.31
53440;BME280;39333;47.044;15.080;2022-09-09T06:49:00;96184.72;;;17.03;67.66
53440;BME280;39333;47.044;15.080;2022-09-09T06:51:33;96192.53;;;17.24;67.24
53440;BME280;39333;47.044;15.080;2022-09-09T06:54:02;96191.88;;;17.37;66.40
53440;BME280;39333;47.044;15.080;2022-09-09T06:56:38;96178.91;;;17.44;66.13
53440;BME280;39333;47.044;15.080;2022-09-09T06:59:13;96178.63;;;17.45;65.53
53440;BME280;39333;47.044;15.080;2022-09-09T07:01:42;96179.94;;;17.48;65.67
53440;BME280;39333;47.044;15.080;2022-09-09T07:04:12;96181.31;;;17.45;65.39
53440;BME280;39333;47.044;15.080;2022-09-09T07:06:44;96188.22;;;17.52;64.98
53440;BME280;39333;47.044;15.080;2022-09-09T07:09:16;96187.69;;;17.49;64.48
53440;BME280;39333;47.044;15.080;2022-09-09T07:11:48;96184.78;;;17.46;65.96
53440;BME280;39333;47.044;15.080;2022-09-09T07:14:18;96187.34;;;17.56;64.98
53440;BME280;39333;47.044;15.080;2022-09-09T07:16:50;96191.53;;;17.67;65.19
53440;BME280;39333;47.044;15.080;2022-09-09T07:19:20;96190.31;;;17.78;65.58
53440;BME280;39333;47.044;15.080;2022-09-09T07:21:50;96183.81;;;17.85;64.59
53440;BME280;39333;47.044;15.080;2022-09-09T07:24:19;96191.75;;;17.90;63.78
53440;BME280;39333;47.044;15.080;2022-09-09T07:26:48;96193.59;;;17.94;63.90
53440;BME280;39333;47.044;15.080;2022-09-09T07:29:15;96189.53;;;17.97;62.43
53440;BME280;39333;47.044;15.080;2022-09-09T07:31:46;96192.44;;;18.00;62.58
53440;BME280;39333;47.044;15.080;2022-09-09T07:34:18;96190.56;;;18.01;63.43
53440;BME280;39333;47.044;15.080;2022-09-09T07:36:45;96191.94;;;17.98;63.25
53440;BME280;39333;47.044;15.080;2022-09-09T07:39:14;96201.88;;;17.98;63.42
53440;BME280;39333;47.044;15.080;2022-09-09T07:41:47;96207.47;;;18.01;63.03
53440;BME280;39333;47.044;15.080;2022-09-09T07:44:20;96201.78;;;18.03;62.96
53440;BME280;39333;47.044;15.080;2022-09-09T07:47:08;96196.41;;;18.03;64.26
53440;BME280;39333;47.044;15.080;2022-09-09T07:49:40;96209.25;;;18.06;63.62
53440;BME280;39333;47.044;15.080;2022-09-09T07:52:08;96209.03;;;18.02;63.00
53440;BME280;39333;47.044;15.080;2022-09-09T07:54:37;96213.69;;;17.97;63.26
53440;BME280;39333;47.044;15.080;2022-09-09T07:57:05;96214.47;;;17.97;63.89
53440;BME280;39333;47.044;15.080;2022-09-09T07:59:34;96213.69;;;17.97;63.74
53440;BME280;39333;47.044;15.080;2022-09-09T08:02:02;96209.03;;;18.02;64.32
53440;BME280;39333;47.044;15.080;2022-09-09T08:04:31;96210.78;;;18.12;64.64
53440;BME280;39333;47.044;15.080;2022-09-09T08:07:00;96211.72;;;18.21;64.22
53440;BME280;39333;47.044;15.080;2022-09-09T08:09:30;96215.72;;;18.24;63.42
53440;BME280;39333;47.044;15.080;2022-09-09T08:12:19;96216.50;;;18.24;64.11
53440;BME280;39333;47.044;15.080;2022-09-09T08:14:45;96216.66;;;18.14;64.70
53440;BME280;39333;47.044;15.080;2022-09-09T08:17:14;96215.94;;;18.08;64.63
53440;BME280;39333;47.044;15.080;2022-09-09T08:19:42;96233.84;;;18.13;65.72
53440;BME280;39333;47.044;15.080;2022-09-09T08:22:15;96228.41;;;18.18;65.07
53440;BME280;39333;47.044;15.080;2022-09-09T08:24:43;96223.63;;;18.15;65.25
53440;BME280;39333;47.044;15.080;2022-09-09T08:27:11;96224.94;;;18.17;65.60
53440;BME280;39333;47.044;15.080;2022-09-09T08:29:38;96227.41;;;18.14;65.82
53440;BME280;39333;47.044;15.080;2022-09-09T08:32:05;96237.03;;;18.15;66.31
53440;BME280;39333;47.044;15.080;2022-09-09T08:34:34;96241.84;;;18.18;65.43
53440;BME280;39333;47.044;15.080;2022-09-09T08:37:05;96242.59;;;18.18;66.01
53440;BME280;39333;47.044;15.080;2022-09-09T08:39:36;96242.13;;;18.16;66.19
53440;BME280;39333;47.044;15.080;2022-09-09T08:42:27;96248.50;;;18.21;66.04
53440;BME280;39333;47.044;15.080;2022-09-09T08:56:16;96249.75;;;18.47;65.59
53440;BME280;39333;47.044;15.080;2022-09-09T08:58:48;96253.13;;;18.52;65.12
53440;BME280;39333;47.044;15.080;2022-09-09T09:11:57;96233.72;;;18.61;64.78
53440;BME280;39333;47.044;15.080;2022-09-09T09:14:35;96234.84;;;18.54;65.13
53440;BME280;39333;47.044;15.080;2022-09-09T09:17:14;96229.06;;;18.47;65.46
53440;BME280;39333;47.044;15.080;2022-09-09T09:19:43;96226.75;;;18.60;65.65
53440;BME280;39333;47.044;15.080;2022-09-09T09:25:02;96236.75;;;18.73;65.96
53440;BME280;39333;47.044;15.080;2022-09-09T09:27:34;96239.66;;;19.09;65.94
53440;BME280;39333;47.044;15.080;2022-09-09T09:30:14;96228.06;;;19.68;63.72
53440;BME280;39333;47.044;15.080;2022-09-09T09:33:18;96232.44;;;20.05;62.62
53440;BME280;39333;47.044;15.080;2022-09-09T09:35:49;96229.81;;;20.41;58.14
53440;BME280;39333;47.044;15.080;2022-09-09T09:38:24;96230.91;;;20.63;59.13
53440;BME280;39333;47.044;15.080;2022-09-09T09:41:11;96208.25;;;21.08;57.70
53440;BME280;39333;47.044;15.080;2022-09-09T09:43:40;96213.28;;;20.79;55.75
53440;BME280;39333;47.044;15.080;2022-09-09T09:46:23;96209.28;;;20.99;58.43
53440;BME280;39333;47.044;15.080;2022-09-09T09:48:58;96214.16;;;21.19;57.49
53440;BME280;39333;47.044;15.080;2022-09-09T09:51:26;96222.47;;;22.10;54.98
53440;BME280;39333;47.044;15.080;2022-09-09T09:54:08;96213.78;;;22.39;54.21
53440;BME280;39333;47.044;15.080;2022-09-09T09:56:37;96211.41;;;22.38;56.20
53440;BME280;39333;47.044;15.080;2022-09-09T09:59:05;96199.47;;;22.47;55.07
53440;BME280;39333;47.044;15.080;2022-09-09T10:01:49;96204.69;;;22.26;55.15
53440;BME280;39333;47.044;15.080;2022-09-09T10:04:22;96206.25;;;22.02;55.27
53440;BME280;39333;47.044;15.080;2022-09-09T10:06:55;96199.81;;;21.80;53.84
53440;BME280;39333;47.044;15.080;2022-09-09T10:09:29;96198.53;;;21.78;56.06
53440;BME280;39333;47.044;15.080;2022-09-09T10:12:19;96203.50;;;21.45;54.51
53440;BME280;39333;47.044;15.080;2022-09-09T10:21:12;96212.56;;;21.18;56.89
53440;BME280;39333;47.044;15.080;2022-09-09T10:31:51;96200.66;;;20.66;57.98
53440;BME280;39333;47.044;15.080;2022-09-09T10:34:38;96197.97;;;20.66;59.20
53440;BME280;39333;47.044;15.080;2022-09-09T10:37:21;96202.25;;;20.67;59.01
53440;BME280;39333;47.044;15.080;2022-09-09T10:42:46;96209.00;;;20.55;59.44
53440;BME280;39333;47.044;15.080;2022-09-09T10:45:18;96212.84;;;20.41;60.61
53440;BME280;39333;47.044;15.080;2022-09-09T10:50:43;96202.59;;;20.15;62.48
53440;BME280;39333;47.044;15.080;2022-09-09T10:53:43;96197.22;;;20.15;62.28
53440;BME280;39333;47.044;15.080;2022-09-09T10:56:16;96184.69;;;20.11;63.08
53440;BME280;39333;47.044;15.080;2022-09-09T10:59:45;96193.06;;;20.09;64.10
53440;BME280;39333;47.044;15.080;2022-09-09T11:02:05;96190.56;;;20.13;65.25
53440;BME280;39333;47.044;15.080;2022-09-09T11:04:42;96193.25;;;20.13;65.86
53440;BME280;39333;47.044;15.080;2022-09-09T11:07:21;96184.50;;;20.07;67.11
53440;BME280;39333;47.044;15.080;2022-09-09T11:09:55;96185.03;;;19.96;67.46
53440;BME280;39333;47.044;15.080;2022-09-09T11:12:27;96188.69;;;20.00;68.34
53440;BME280;39333;47.044;15.080;2022-09-09T11:15:08;96187.81;;;19.90;67.72
53440;BME280;39333;47.044;15.080;2022-09-09T11:17:50;96182.44;;;19.90;68.62
53440;BME280;39333;47.044;15.080;2022-09-09T11:20:20;96184.03;;;19.91;67.82
53440;BME280;39333;47.044;15.080;2022-09-09T11:22:51;96181.75;;;19.85;68.08
53440;BME280;39333;47.044;15.080;2022-09-09T11:25:27;96177.94;;;19.86;68.18
53440;BME280;39333;47.044;15.080;2022-09-09T11:39:24;96151.91;;;20.45;66.76
53440;BME280;39333;47.044;15.080;2022-09-09T11:42:26;96154.09;;;20.43;67.43
53440;BME280;39333;47.044;15.080;2022-09-09T11:44:53;96148.06;;;20.46;65.27
53440;BME280;39333;47.044;15.080;2022-09-09T11:47:27;96139.09;;;20.50;64.12
53440;BME280;39333;47.044;15.080;2022-09-09T11:52:44;96143.97;;;20.71;64.29
53440;BME280;39333;47.044;15.080;2022-09-09T11:55:25;96151.50;;;20.82;63.86
53440;BME280;39333;47.044;15.080;2022-09-09T11:58:00;96132.44;;;20.79;62.21
53440;BME280;39333;47.044;15.080;2022-09-09T12:00:31;96143.84;;;20.76;63.05
53440;BME280;39333;47.044;15.080;2022-09-09T12:02:59;96140.19;;;20.72;62.44
53440;BME280;39333;47.044;15.080;2022-09-09T12:05:41;96136.81;;;20.66;63.17
53440;BME280;39333;47.044;15.080;2022-09-09T12:08:10;96132.41;;;20.70;64.04
53440;BME280;39333;47.044;15.080;2022-09-09T12:10:56;96126.09;;;20.75;63.64
53440;BME280;39333;47.044;15.080;2022-09-09T12:13:25;96116.44;;;20.74;61.61
53440;BME280;39333;47.044;15.080;2022-09-09T12:15:58;96112.78;;;20.78;62.75
53440;BME280;39333;47.044;15.080;2022-09-09T12:18:37;96115.41;;;20.92;62.18
53440;BME280;39333;47.044;15.080;2022-09-09T12:24:19;96101.94;;;20.92;60.98
53440;BME280;39333;47.044;15.080;2022-09-09T12:26:54;96102.38;;;20.85;63.45
53440;BME280;39333;47.044;15.080;2022-09-09T12:29:54;96103.44;;;20.76;64.03
53440;BME280;39333;47.044;15.080;2022-09-09T12:32:25;96092.66;;;20.76;63.12
53440;BME280;39333;47.044;15.080;2022-09-09T12:35:09;96091.88;;;20.75;62.65
53440;BME280;39333;47.044;15.080;2022-09-09T12:40:25;96094.25;;;20.77;60.59
53440;BME280;39333;47.044;15.080;2022-09-09T12:42:52;96093.28;;;20.73;60.86
53440;BME280;39333;47.044;15.080;2022-09-09T12:45:21;96093.22;;;20.64;62.58
53440;BME280;39333;47.044;15.080;2022-09-09T12:47:53;96094.16;;;20.59;63.36
53440;BME280;39333;47.044;15.080;2022-09-09T12:50:22;96086.50;;;20.53;63.48
53440;BME280;39333;47.044;15.080;2022-09-09T12:52:55;96079.50;;;20.43;63.80
53440;BME280;39333;47.044;15.080;2022-09-09T12:55:28;96082.81;;;20.40;63.69
53440;BME280;39333;47.044;15.080;2022-09-09T12:57:57;96075.81;;;20.39;63.48
53440;BME280;39333;47.044;15.080;2022-09-09T13:00:26;96079.13;;;20.36;63.64
53440;BME280;39333;47.044;15.080;2022-09-09T13:02:55;96084.78;;;20.35;63.63
53440;BME280;39333;47.044;15.080;2022-09-09T13:05:37;96077.31;;;20.32;64.11
53440;BME280;39333;47.044;15.080;2022-09-09T13:08:11;96075.88;;;20.25;64.57
53440;BME280;39333;47.044;15.080;2022-09-09T13:10:59;96063.81;;;20.23;64.19
53440;BME280;39333;47.044;15.080;2022-09-09T13:13:36;96067.19;;;20.29;64.00
53440;BME280;39333;47.044;15.080;2022-09-09T13:16:05;96060.06;;;20.33;65.03
53440;BME280;39333;47.044;15.080;2022-09-09T13:18:36;96058.16;;;20.33;64.65
53440;BME280;39333;47.044;15.080;2022-09-09T13:21:04;96056.56;;;20.32;64.17
53440;BME280;39333;47.044;15.080;2022-09-09T13:23:36;96060.66;;;20.30;64.11
53440;BME280;39333;47.044;15.080;2022-09-09T13:26:21;96054.97;;;20.31;64.40
53440;BME280;39333;47.044;15.080;2022-09-09T13:28:50;96049.75;;;20.26;64.08
53440;BME280;39333;47.044;15.080;2022-09-09T13:31:30;96058.84;;;20.16;64.79
53440;BME280;39333;47.044;15.080;2022-09-09T13:33:59;96055.84;;;20.18;65.71
53440;BME280;39333;47.044;15.080;2022-09-09T13:36:36;96055.94;;;20.26;66.10
53440;BME280;39333;47.044;15.080;2022-09-09T13:39:03;96047.63;;;20.37;64.77
53440;BME280;39333;47.044;15.080;2022-09-09T13:41:35;96047.13;;;20.66;65.89
53440;BME280;39333;47.044;15.080;2022-09-09T13:44:03;96040.59;;;20.89;64.09
53440;BME280;39333;47.044;15.080;2022-09-09T13:46:40;96051.72;;;21.05;63.70
53440;BME280;39333;47.044;15.080;2022-09-09T13:51:47;96049.34;;;21.03;61.32
53440;BME280;39333;47.044;15.080;2022-09-09T13:54:17;96041.88;;;20.91;60.37
53440;BME280;39333;47.044;15.080;2022-09-09T13:56:44;96040.41;;;20.85;60.92
53440;BME280;39333;47.044;15.080;2022-09-09T13:59:13;96041.19;;;20.86;61.19
53440;BME280;39333;47.044;15.080;2022-09-09T14:01:40;96029.94;;;20.84;62.36
53440;BME280;39333;47.044;15.080;2022-09-09T14:04:08;96034.50;;;20.75;61.06
53440;BME280;39333;47.044;15.080;2022-09-09T14:06:36;96028.81;;;20.45;60.61
53440;BME280;39333;47.044;15.080;2022-09-09T14:09:06;96028.66;;;20.42;62.08
53440;BME280;39333;47.044;15.080;2022-09-09T14:11:33;96021.50;;;20.46;62.41
53440;BME280;39333;47.044;15.080;2022-09-09T14:13:59;96015.81;;;20.47;62.43
53440;BME280;39333;47.044;15.080;2022-09-09T14:16:28;96026.34;;;20.57;60.82
53440;BME280;39333;47.044;15.080;2022-09-09T14:18:55;96025.25;;;20.58;60.81
53440;BME280;39333;47.044;15.080;2022-09-09T14:21:26;96030.16;;;20.56;61.38
53440;BME280;39333;47.044;15.080;2022-09-09T14:23:53;96029.16;;;20.52;60.52
53440;BME280;39333;47.044;15.080;2022-09-09T14:26:21;96029.78;;;20.49;60.96
53440;BME280;39333;47.044;15.080;2022-09-09T14:28:48;96030.53;;;20.41;61.78
53440;BME280;39333;47.044;15.080;2022-09-09T14:31:24;96039.81;;;20.35;62.69
53440;BME280;39333;47.044;15.080;2022-09-09T14:33:51;96033.09;;;20.24;62.84
53440;BME280;39333;47.044;15.080;2022-09-09T14:36:19;96036.53;;;20.16;63.48
53440;BME280;39333;47.044;15.080;2022-09-09T14:38:46;96041.56;;;20.09;64.74
53440;BME280;39333;47.044;15.080;2022-09-09T14:41:16;96039.59;;;20.01;66.74
53440;BME280;39333;47.044;15.080;2022-09-09T14:43:49;96034.19;;;20.01;67.13
53440;BME280;39333;47.044;15.080;2022-09-09T14:46:18;96044.25;;;20.09;65.68
53440;BME280;39333;47.044;15.080;2022-09-09T14:48:45;96046.50;;;20.15;64.80
53440;BME280;39333;47.044;15.080;2022-09-09T14:51:17;96050.53;;;20.26;65.65
53440;BME280;39333;47.044;15.080;2022-09-09T14:53:46;96042.41;;;20.40;64.33
53440;BME280;39333;47.044;15.080;2022-09-09T14:56:21;96030.78;;;21.02;62.07
53440;BME280;39333;47.044;15.080;2022-09-09T14:58:49;96037.91;;;21.54;60.13
53440;BME280;39333;47.044;15.080;2022-09-09T15:01:19;96038.56;;;21.69;60.22
53440;BME280;39333;47.044;15.080;2022-09-09T15:03:52;96035.72;;;21.74;58.98
53440;BME280;39333;47.044;15.080;2022-09-09T15:06:21;96042.16;;;21.47;57.57